Time;durP1;ratioP1;P1;durP2;ratioP2;P2;SDS_P1;SDS_P2;PMS_P1;PMS_P2;Temp;Humidity;BMP_temperature;BMP_pressure;BME280_temperature;BME280_humidity;BME280_pressure;Samples;Min_cycle;Max_cycle;Signal;HPM_P1;HPM_P2
2022/04/01 00:00:35;;;;;;;13.65;6.95;;;;;;;-0.84;100.00;100145.44;4896053;29;20037;-89
2022/04/01 00:03:00;;;;;;;7.27;5.03;;;;;;;-0.83;100.00;100145.22;4909486;29;20029;-88
2022/04/01 00:05:26;;;;;;;12.95;6.55;;;;;;;-0.88;100.00;100144.22;4909873;29;20528;-88
2022/04/01 00:07:51;;;;;;;12.57;6.73;;;;;;;-1.04;100.00;100121.69;4882565;29;20104;-89
2022/04/01 00:14:01;;;;;;;8.73;5.57;;;;;;;-0.92;100.00;100151.69;4892125;29;20067;-88
2022/04/01 00:16:28;;;;;;;8.63;5.30;;;;;;;-0.93;100.00;100155.34;4876904;29;20077;-88
2022/04/01 00:19:05;;;;;;;8.43;5.47;;;;;;;-0.99;100.00;100161.38;4877972;29;20374;-88
2022/04/01 00:21:31;;;;;;;8.80;5.37;;;;;;;-0.93;100.00;100168.47;4877587;29;20036;-88
2022/04/01 00:23:56;;;;;;;6.77;4.63;;;;;;;-1.12;100.00;100147.19;4911938;29;20609;-88
2022/04/01 00:26:21;;;;;;;7.70;4.70;;;;;;;-1.03;100.00;100160.97;4914273;29;20472;-88
2022/04/01 00:28:47;;;;;;;9.43;4.17;;;;;;;-1.00;100.00;100163.19;4913591;29;20040;-88
2022/04/01 00:31:13;;;;;;;6.17;4.53;;;;;;;-0.99;100.00;100169.25;4906132;29;20036;-88
2022/04/01 00:33:39;;;;;;;9.77;4.95;;;;;;;-0.93;100.00;100171.13;4894436;29;20024;-88
2022/04/01 00:36:05;;;;;;;8.05;5.05;;;;;;;-0.97;100.00;100168.06;4895195;29;20032;-90
2022/04/01 00:38:31;;;;;;;8.80;4.93;;;;;;;-1.05;100.00;100167.41;4897102;29;20480;-89
2022/04/01 00:40:58;;;;;;;8.97;4.23;;;;;;;-0.98;100.00;100163.78;4914173;29;20063;-87
2022/04/01 00:43:28;;;;;;;5.38;3.65;;;;;;;-0.99;100.00;100166.63;4879408;29;20035;-87
2022/04/01 00:45:54;;;;;;;7.65;4.85;;;;;;;-1.03;100.00;100175.91;4913582;29;20024;-87
2022/04/01 00:48:19;;;;;;;7.73;4.33;;;;;;;-1.11;100.00;100175.09;4913409;29;20024;-87
2022/04/01 00:50:44;;;;;;;7.77;4.70;;;;;;;-1.14;100.00;100185.19;4914644;29;20346;-87
2022/04/01 00:53:13;;;;;;;13.23;5.03;;;;;;;-1.07;100.00;100176.31;4964047;23;20048;-87
2022/04/01 00:55:46;;;;;;;7.35;5.20;;;;;;;-1.10;100.00;100186.41;4932014;29;20414;-87
2022/04/01 01:07:30;;;;;;;6.72;4.05;;;;;;;-1.15;100.00;100170.41;4932900;29;20062;-87
2022/04/01 01:10:03;;;;;;;13.67;5.33;;;;;;;-1.09;100.00;100183.59;4922915;29;20107;-87
2022/04/01 01:12:30;;;;;;;7.20;4.18;;;;;;;-1.12;100.00;100184.00;4912256;29;20032;-87
2022/04/01 01:15:10;;;;;;;9.48;4.88;;;;;;;-1.13;100.00;100185.00;4885450;29;20131;-87
2022/04/01 01:17:40;;;;;;;11.70;5.57;;;;;;;-1.13;100.00;100192.91;4895100;29;20025;-87
2022/04/01 01:20:15;;;;;;;8.88;4.38;;;;;;;-1.16;100.00;100189.81;4912448;29;20399;-87
2022/04/01 01:26:00;;;;;;;11.63;4.63;;;;;;;-1.13;100.00;100186.81;5039151;23;20048;-87
2022/04/01 01:28:25;;;;;;;6.68;4.97;;;;;;;-1.36;100.00;100159.00;4912941;29;20032;-86
2022/04/01 01:30:50;;;;;;;9.80;4.70;;;;;;;-1.25;100.00;100179.50;4913785;29;20115;-87
2022/04/01 01:33:31;;;;;;;8.63;4.70;;;;;;;-1.23;100.00;100188.00;4928758;29;20039;-87
2022/04/01 01:35:57;;;;;;;6.00;3.65;;;;;;;-1.20;100.00;100175.47;4932721;29;20047;-86
2022/04/01 01:41:49;;;;;;;9.90;5.25;;;;;;;-1.12;100.00;100193.69;4913014;23;21326;-87
2022/04/01 01:47:28;;;;;;;7.50;4.75;;;;;;;-1.17;100.00;100189.03;4935653;29;20043;-87
2022/04/01 01:55:21;;;;;;;5.83;4.47;;;;;;;-1.12;100.00;100199.78;4927375;29;20647;-87
2022/04/01 01:57:46;;;;;;;8.10;5.57;;;;;;;-1.16;100.00;100197.72;4935941;29;20020;-88
2022/04/01 02:00:20;;;;;;;9.20;5.17;;;;;;;-1.35;100.00;100179.00;4934069;29;20057;-88
2022/04/01 02:03:38;;;;;;;8.65;5.10;;;;;;;-1.14;100.00;100200.97;4935809;29;20027;-87
2022/04/01 02:06:04;;;;;;;9.95;4.88;;;;;;;-1.11;100.00;100201.41;4936022;29;20032;-87
2022/04/01 02:08:30;;;;;;;7.00;4.43;;;;;;;-1.17;100.00;100211.88;4918170;29;20802;-87
2022/04/01 02:10:55;;;;;;;13.50;5.22;;;;;;;-1.22;100.00;100209.81;4919067;29;20123;-87
2022/04/01 02:13:21;;;;;;;6.13;3.80;;;;;;;-1.14;100.00;100216.72;4919238;29;20112;-87
2022/04/01 02:15:48;;;;;;;12.25;4.22;;;;;;;-1.11;100.00;100211.91;4917389;29;20039;-87
2022/04/01 02:21:46;;;;;;;5.10;4.00;;;;;;;-1.04;100.00;100221.63;5030581;23;20543;-88
2022/04/01 02:24:13;;;;;;;6.83;4.73;;;;;;;-1.28;100.00;100189.59;4900950;29;20055;-88
2022/04/01 02:26:56;;;;;;;6.23;4.40;;;;;;;-1.16;100.00;100203.78;4935768;29;20283;-87
2022/04/01 02:29:23;;;;;;;9.13;5.03;;;;;;;-1.07;100.00;100221.00;4931807;29;20051;-88
2022/04/01 02:31:58;;;;;;;8.15;4.72;;;;;;;-1.26;100.00;100195.44;4929822;29;20036;-88
2022/04/01 02:34:48;;;;;;;8.23;5.50;;;;;;;-1.02;100.00;100232.78;4933037;29;20115;-88
2022/04/01 02:38:06;;;;;;;6.43;4.88;;;;;;;-1.06;100.00;100235.00;4914596;29;20060;-88
2022/04/01 02:43:00;;;;;;;6.28;4.75;;;;;;;-1.13;100.00;100219.19;4893944;29;20051;-88
2022/04/01 02:45:25;;;;;;;7.63;5.37;;;;;;;-1.06;100.00;100235.00;4896718;29;20392;-88
2022/04/01 02:47:51;;;;;;;7.40;5.10;;;;;;;-1.10;100.00;100224.06;4896277;29;20032;-87
2022/04/01 02:50:17;;;;;;;6.47;4.82;;;;;;;-1.08;100.00;100243.06;4896130;29;20060;-88
2022/04/01 02:52:57;;;;;;;8.63;4.85;;;;;;;-1.23;100.00;100216.09;4920891;23;20518;-88
2022/04/01 02:55:26;;;;;;;5.13;3.40;;;;;;;-1.09;100.00;100248.53;4915833;29;20028;-88
2022/04/01 02:58:27;;;;;;;6.00;4.43;;;;;;;-1.11;100.00;100256.63;4916708;29;20291;-88
2022/04/01 03:00:53;;;;;;;7.60;4.88;;;;;;;-1.11;100.00;100240.84;4897837;29;20111;-88
2022/04/01 03:03:21;;;;;;;9.63;6.20;;;;;;;-1.04;100.00;100255.81;4899017;29;20125;-88
2022/04/01 03:05:49;;;;;;;7.17;4.53;;;;;;;-0.99;100.00;100263.94;4916548;29;20288;-88
2022/04/01 03:08:16;;;;;;;5.97;4.85;;;;;;;-1.02;100.00;100266.97;4913967;29;20032;-88
2022/04/01 03:10:42;;;;;;;9.35;6.30;;;;;;;-0.99;100.00;100272.63;4914822;29;20115;-88
2022/04/01 03:13:08;;;;;;;9.07;6.50;;;;;;;-0.97;100.00;100275.88;4915287;29;20111;-88
2022/04/01 03:15:34;;;;;;;5.43;3.88;;;;;;;-0.97;100.00;100269.84;4916740;29;20028;-88
2022/04/01 03:17:59;;;;;;;10.13;5.67;;;;;;;-1.03;100.00;100276.69;4901749;29;20108;-88
2022/04/01 03:20:29;;;;;;;8.10;4.50;;;;;;;-1.07;100.00;100278.88;4901116;29;20069;-88
2022/04/01 03:22:55;;;;;;;9.02;5.57;;;;;;;-1.00;100.00;100286.00;4886754;29;20493;-87
2022/04/01 03:25:20;;;;;;;7.55;5.30;;;;;;;-1.04;100.00;100282.13;4898790;29;20033;-88
2022/04/01 03:27:50;;;;;;;8.10;5.33;;;;;;;-1.18;100.00;100273.34;4910951;29;20036;-88
2022/04/01 03:30:17;;;;;;;12.55;6.38;;;;;;;-1.15;100.00;100283.47;4909823;29;20035;-88
2022/04/01 03:32:43;;;;;;;9.35;6.25;;;;;;;-1.15;100.00;100288.75;4914107;29;20391;-88
2022/04/01 03:35:14;;;;;;;9.95;6.07;;;;;;;-1.15;100.00;100297.47;4915449;29;20040;-87
2022/04/01 03:37:45;;;;;;;12.60;7.55;;;;;;;-1.18;100.00;100289.13;4915026;29;20028;-87
2022/04/01 03:40:14;;;;;;;12.25;7.00;;;;;;;-1.13;100.00;100295.44;4913302;29;20031;-88
2022/04/01 03:42:40;;;;;;;11.37;6.83;;;;;;;-1.19;100.00;100293.59;4898841;29;20649;-88
2022/04/01 03:45:06;;;;;;;11.57;6.67;;;;;;;-1.12;100.00;100298.88;4911792;29;20304;-88
2022/04/01 03:47:55;;;;;;;11.02;7.07;;;;;;;-1.13;100.00;100298.06;4915233;29;20028;-88
2022/04/01 03:50:28;;;;;;;10.85;6.55;;;;;;;-1.18;100.00;100305.72;4909369;29;20111;-87
2022/04/01 03:53:00;;;;;;;10.63;6.88;;;;;;;-1.18;100.00;100304.91;4896062;29;20115;-87
2022/04/01 03:55:30;;;;;;;11.68;6.15;;;;;;;-1.26;100.00;100293.53;4903491;29;20032;-87
2022/04/01 03:58:02;;;;;;;8.50;5.80;;;;;;;-1.17;100.00;100312.59;4912170;29;20063;-86
2022/04/01 04:00:29;;;;;;;13.43;8.73;;;;;;;-1.25;100.00;100318.00;4913596;29;20083;-87
2022/04/01 04:02:54;;;;;;;12.83;6.53;;;;;;;-1.23;100.00;100318.63;4914561;29;20391;-86
2022/04/01 04:05:23;;;;;;;9.07;5.90;;;;;;;-1.27;100.00;100325.25;4914410;29;20115;-87
2022/04/01 04:07:49;;;;;;;8.70;6.53;;;;;;;-1.19;100.00;100322.50;4913998;29;20024;-87
2022/04/01 04:10:14;;;;;;;9.50;6.30;;;;;;;-1.23;100.00;100323.88;4912706;29;20051;-87
2022/04/01 04:12:43;;;;;;;8.23;5.60;;;;;;;-1.29;100.00;100324.66;4913454;29;20043;-87
2022/04/01 04:15:09;;;;;;;9.68;6.85;;;;;;;-1.27;100.00;100333.97;4896289;29;20033;-86
2022/04/01 04:17:36;;;;;;;8.87;6.40;;;;;;;-1.22;100.00;100338.66;4905043;29;20040;-85
2022/04/01 04:20:08;;;;;;;10.68;7.15;;;;;;;-1.27;100.00;100339.25;4913978;29;20032;-85
2022/04/01 04:22:44;;;;;;;12.15;7.32;;;;;;;-1.22;100.00;100346.53;4883221;29;20396;-85
2022/04/01 04:25:14;;;;;;;11.68;7.53;;;;;;;-1.25;100.00;100349.56;4882041;29;20705;-85
2022/04/01 04:27:51;;;;;;;9.85;6.45;;;;;;;-1.22;100.00;100344.75;4896993;29;20043;-85
2022/04/01 04:30:18;;;;;;;7.30;5.15;;;;;;;-1.18;100.00;100347.78;4912200;29;20127;-85
2022/04/01 04:32:54;;;;;;;9.50;6.03;;;;;;;-1.16;100.00;100353.69;4914089;29;20053;-87
2022/04/01 04:35:23;;;;;;;9.68;5.78;;;;;;;-1.15;100.00;100365.81;4900424;29;20040;-87
2022/04/01 04:37:54;;;;;;;9.45;5.78;;;;;;;-1.09;100.00;100357.16;4913320;29;20124;-88
2022/04/01 04:46:10;;;;;;;8.40;5.97;;;;;;;-1.20;100.00;100373.47;5097353;23;20043;-87
2022/04/01 04:51:59;;;;;;;8.75;6.30;;;;;;;-1.34;100.00;100369.13;5402534;23;20062;-87
2022/04/01 04:54:26;;;;;;;10.77;6.07;;;;;;;-1.29;100.00;100377.25;4950316;28;20035;-86
2022/04/01 05:02:43;;;;;;;11.95;4.78;;;;;;;-1.22;100.00;100409.66;5961093;23;20260;-87
2022/04/01 05:05:18;;;;;;;10.38;5.75;;;;;;;-1.19;100.00;100411.91;4933529;29;20690;-87
2022/04/01 05:08:09;;;;;;;11.70;5.90;;;;;;;-1.13;100.00;100424.31;4915916;29;20090;-87
2022/04/01 05:10:51;;;;;;;8.27;4.97;;;;;;;-1.26;100.00;100424.16;4930233;29;20286;-87
2022/04/01 05:13:52;;;;;;;9.15;5.70;;;;;;;-1.15;100.00;100431.56;4932935;29;20028;-88
2022/04/01 05:16:59;;;;;;;8.15;5.30;;;;;;;-1.16;100.00;100442.25;4928847;29;20051;-87
2022/04/01 05:22:24;;;;;;;9.57;5.63;;;;;;;-1.20;100.00;100452.34;5243015;23;20631;-86
2022/04/01 05:28:34;;;;;;;9.80;4.70;;;;;;;-1.31;100.00;100440.53;4919630;29;20058;-87
2022/04/01 05:31:30;;;;;;;8.60;4.90;;;;;;;-1.19;100.00;100448.72;4929835;29;20028;-87
2022/04/01 18:52:40;;;;;;;11.90;2.92;;;;;;;0.10;100.00;101247.75;4896633;29;20127;-85
2022/04/01 18:55:18;;;;;;;8.23;2.47;;;;;;;0.06;100.00;101243.84;4896461;29;20111;-85
2022/04/01 18:57:45;;;;;;;4.53;2.33;;;;;;;0.06;100.00;101237.75;4895971;29;20025;-84
2022/04/01 19:00:20;;;;;;;7.90;2.87;;;;;;;0.08;100.00;101239.22;4896795;29;20351;-84
2022/04/01 19:03:25;;;;;;;8.35;2.40;;;;;;;0.24;100.00;101266.41;4898231;29;20044;-85
2022/04/01 19:06:01;;;;;;;10.70;3.00;;;;;;;0.24;100.00;101261.16;4896266;29;20113;-86
2022/04/01 19:08:49;;;;;;;13.30;2.65;;;;;;;0.33;100.00;101265.38;4898222;29;20029;-84
2022/04/01 19:11:17;;;;;;;8.15;2.28;;;;;;;0.37;100.00;101265.81;4897532;29;20044;-85
2022/04/01 19:13:43;;;;;;;10.77;2.58;;;;;;;0.41;100.00;101267.09;4897775;29;20028;-85
2022/04/01 19:16:14;;;;;;;7.90;2.35;;;;;;;0.39;100.00;101269.91;4895746;29;20035;-85
2022/04/01 19:18:45;;;;;;;6.10;2.67;;;;;;;0.43;100.00;101276.47;4897215;29;20100;-85
2022/04/01 19:21:18;;;;;;;5.63;2.53;;;;;;;0.41;100.00;101273.19;4895628;29;20108;-85
2022/04/01 19:23:48;;;;;;;4.23;2.33;;;;;;;0.48;100.00;101281.19;4896516;29;20032;-86
2022/04/01 19:26:15;;;;;;;5.47;2.30;;;;;;;0.48;100.00;101281.19;4896049;29;20703;-85
2022/04/01 19:28:41;;;;;;;5.38;2.65;;;;;;;0.50;99.82;101286.31;4895721;29;20273;-85
2022/04/01 19:31:06;;;;;;;5.38;2.92;;;;;;;0.47;99.77;101276.91;4895164;29;20063;-85
2022/04/01 19:33:32;;;;;;;4.13;2.43;;;;;;;0.46;99.71;101277.91;4896201;29;20119;-85
2022/04/01 19:35:58;;;;;;;5.93;2.37;;;;;;;0.52;99.74;101292.22;4894001;29;20025;-87
2022/04/01 19:38:23;;;;;;;5.82;2.50;;;;;;;0.52;98.82;101285.13;4895738;29;20460;-85
2022/04/01 19:40:49;;;;;;;5.13;2.20;;;;;;;0.52;98.16;101287.75;4896734;29;20028;-87
2022/04/01 19:43:16;;;;;;;5.80;2.80;;;;;;;0.62;95.39;101291.97;4877599;29;20468;-88
2022/04/01 19:45:41;;;;;;;3.70;2.30;;;;;;;0.62;96.20;101291.97;4895140;29;20029;-87
2022/04/01 19:48:07;;;;;;;10.45;2.22;;;;;;;0.56;94.50;101277.66;4925873;23;20039;-89
2022/04/01 19:51:10;;;;;;;7.73;1.77;;;;;;;0.48;92.73;101268.00;4932939;29;20031;-87
2022/04/01 19:53:36;;;;;;;3.15;1.80;;;;;;;0.59;93.04;101278.13;4933666;29;20039;-86
2022/04/01 19:56:02;;;;;;;5.20;2.20;;;;;;;0.74;92.39;101306.34;4932846;29;20032;-85
2022/04/01 19:58:28;;;;;;;4.50;2.30;;;;;;;0.73;92.31;101308.16;4909913;29;20063;-84
2022/04/01 20:00:53;;;;;;;11.80;5.10;;;;;;;0.70;93.30;101303.25;4932857;29;20082;-85
2022/04/01 20:03:19;;;;;;;7.50;3.08;;;;;;;0.69;94.43;101301.63;4933556;29;20024;-84
2022/04/01 20:05:44;;;;;;;8.90;2.60;;;;;;;0.70;94.90;101310.34;4930975;29;20024;-84
2022/04/01 20:08:11;;;;;;;4.30;2.50;;;;;;;0.68;94.92;101310.53;4933170;29;20498;-84
2022/04/01 20:10:36;;;;;;;4.75;2.47;;;;;;;0.66;95.97;101309.06;4933411;29;20028;-85
2022/04/01 20:13:01;;;;;;;5.53;2.57;;;;;;;0.62;96.24;101305.16;4933360;29;20039;-84
2022/04/01 20:15:26;;;;;;;3.90;2.40;;;;;;;0.56;96.29;101302.22;4931097;29;20484;-85
2022/04/01 20:17:52;;;;;;;4.53;2.30;;;;;;;0.62;96.46;101311.22;4930677;29;20044;-85
2022/04/01 20:20:18;;;;;;;5.28;2.58;;;;;;;0.64;96.12;101314.50;4923294;29;20035;-84
2022/04/01 20:22:43;;;;;;;4.13;2.30;;;;;;;0.55;97.12;101316.41;4933068;29;20123;-84
2022/04/01 20:25:09;;;;;;;6.80;2.43;;;;;;;0.60;96.45;101319.34;4932097;29;20016;-84
2022/04/01 20:27:35;;;;;;;5.75;2.72;;;;;;;0.48;96.61;101315.47;4937473;23;20074;-84
2022/04/01 20:30:01;;;;;;;3.58;2.35;;;;;;;0.59;93.11;101330.88;4914502;29;20051;-85
2022/04/01 20:32:26;;;;;;;8.00;2.75;;;;;;;0.67;91.70;101332.63;4914266;29;20047;-84
2022/04/01 20:34:52;;;;;;;5.90;1.97;;;;;;;0.63;90.57;101309.44;4914307;29;20040;-85
2022/04/01 20:37:17;;;;;;;3.57;1.90;;;;;;;0.70;86.10;101313.81;4928861;29;20036;-86
2022/04/01 20:39:42;;;;;;;2.47;1.50;;;;;;;0.78;86.01;101319.97;4927973;29;20115;-85
2022/04/01 20:42:09;;;;;;;3.60;1.70;;;;;;;0.79;85.84;101321.63;4933650;29;20055;-86
2022/04/01 20:44:35;;;;;;;12.27;1.33;;;;;;;0.82;85.70;101330.00;4933261;29;20047;-86
2022/04/01 20:47:01;;;;;;;5.35;1.55;;;;;;;0.86;84.64;101327.84;4915539;29;20020;-87
2022/04/01 20:49:26;;;;;;;4.38;1.63;;;;;;;0.82;85.14;101330.00;4896314;29;20051;-86
2022/04/01 20:51:52;;;;;;;4.63;1.33;;;;;;;0.78;84.23;101327.91;5194305;23;20145;-86
2022/04/01 20:54:19;;;;;;;4.13;1.53;;;;;;;0.81;83.81;101330.19;4895891;29;20032;-86
2022/04/01 20:56:44;;;;;;;3.87;1.80;;;;;;;0.77;85.38;101342.09;4891850;29;20316;-87
2022/04/01 21:01:45;;;;;;;3.93;1.60;;;;;;;0.71;83.88;101336.56;5042145;23;20055;-86
2022/04/01 21:04:10;;;;;;;5.80;1.40;;;;;;;0.69;81.66;101322.72;4928655;29;20027;-86
2022/04/01 21:09:02;;;;;;;4.03;1.60;;;;;;;0.54;81.15;101298.16;5073261;23;20066;-86
2022/04/01 21:11:28;;;;;;;4.15;1.60;;;;;;;0.75;81.79;101332.53;4933003;29;20031;-86
2022/04/01 21:13:53;;;;;;;2.00;1.27;;;;;;;0.71;80.55;101333.91;4915672;29;20495;-86
2022/04/01 21:16:19;;;;;;;4.43;1.65;;;;;;;0.80;79.66;101326.75;4925477;29;20392;-86
2022/04/01 21:18:44;;;;;;;3.50;1.50;;;;;;;0.74;78.76;101322.97;4931928;29;20027;-86
2022/04/01 21:21:09;;;;;;;4.53;1.70;;;;;;;0.81;79.78;101335.47;4915575;29;20036;-86
2022/04/01 21:23:35;;;;;;;3.53;1.43;;;;;;;0.74;80.23;101324.81;4933577;29;20051;-86
2022/04/01 21:28:28;;;;;;;2.20;1.38;;;;;;;0.71;79.07;101335.72;4927219;29;20052;-87
2022/04/01 21:31:18;;;;;;;4.00;1.43;;;;;;;0.83;78.11;101341.38;4909757;29;20451;-87
2022/04/01 21:34:35;;;;;;;6.38;1.65;;;;;;;0.84;77.38;101340.38;4897253;29;20028;-87
2022/04/01 21:37:26;;;;;;;3.78;1.45;;;;;;;0.84;78.05;101337.75;5072172;23;20025;-87
2022/04/01 21:40:04;;;;;;;2.50;1.30;;;;;;;0.80;78.86;101339.09;4878670;29;20392;-87
2022/04/01 21:42:30;;;;;;;2.95;1.48;;;;;;;0.67;78.35;101334.44;4893915;29;20131;-87
2022/04/01 21:44:57;;;;;;;3.10;1.60;;;;;;;0.67;76.85;101327.34;4895129;29;20496;-87
2022/04/01 21:47:23;;;;;;;4.88;1.50;;;;;;;0.74;76.04;101343.28;4897162;29;20032;-87
2022/04/01 21:49:51;;;;;;;4.03;1.52;;;;;;;0.71;76.97;101336.56;4895725;29;20512;-87
2022/04/01 21:52:16;;;;;;;7.00;1.50;;;;;;;0.66;77.52;101341.53;4895687;29;20092;-87
2022/04/01 21:54:43;;;;;;;4.75;1.33;;;;;;;0.71;76.90;101338.34;4892434;29;20488;-87
2022/04/01 21:57:09;;;;;;;5.20;1.45;;;;;;;0.69;75.77;101345.63;4893226;29;20024;-87
2022/04/01 21:59:34;;;;;;;6.53;1.60;;;;;;;0.59;76.43;101335.31;4894196;29;20028;-86
2022/04/01 22:02:03;;;;;;;5.10;1.63;;;;;;;0.62;75.39;101342.88;4897548;29;20043;-86
2022/04/01 22:04:29;;;;;;;6.70;1.57;;;;;;;0.66;75.61;101346.81;4898203;29;20119;-87
2022/04/01 22:09:22;;;;;;;3.10;1.30;;;;;;;0.51;76.09;101348.59;4916103;29;20056;-86
2022/04/01 22:11:49;;;;;;;4.20;1.30;;;;;;;0.42;77.18;101346.03;4900912;29;20275;-86
2022/04/01 22:14:16;;;;;;;2.90;1.60;;;;;;;0.36;76.97;101348.56;4915137;29;20020;-86
2022/04/01 22:19:17;;;;;;;2.70;1.63;;;;;;;0.32;76.53;101353.38;4992743;23;20182;-87
2022/04/01 22:21:44;;;;;;;3.03;1.57;;;;;;;0.34;75.87;101356.66;4917671;29;20069;-85
2022/04/01 22:24:11;;;;;;;5.73;1.50;;;;;;;0.29;76.47;101365.06;4918279;29;20839;-86
2022/04/01 22:26:36;;;;;;;3.45;1.70;;;;;;;0.26;77.22;101359.34;4935890;29;20431;-86
2022/04/01 22:29:03;;;;;;;2.88;1.63;;;;;;;0.21;76.95;101357.22;4919164;29;20051;-86
2022/04/01 22:40:01;;;;;;;3.17;1.50;;;;;;;0.10;76.98;101366.38;5578553;23;20070;-85
2022/04/01 22:42:29;;;;;;;4.03;1.57;;;;;;;0.10;76.10;101369.00;4936631;29;20480;-85
2022/04/01 22:44:56;;;;;;;3.47;1.63;;;;;;;0.08;75.54;101368.34;4933708;29;20035;-85
2022/04/01 22:47:22;;;;;;;4.65;1.58;;;;;;;-0.08;76.33;101347.38;4929962;23;20077;-86
2022/04/01 22:50:05;;;;;;;5.15;1.67;;;;;;;0.03;76.64;101365.41;4936076;29;20032;-86
2022/04/01 22:58:57;;;;;;;5.28;1.77;;;;;;;-0.09;76.16;101345.72;5104005;23;20436;-86
2022/04/01 23:01:44;;;;;;;4.22;1.48;;;;;;;0.13;75.56;101381.00;4931176;29;20051;-84
2022/04/01 23:04:09;;;;;;;2.60;1.50;;;;;;;0.13;75.75;101381.84;4932438;29;20044;-87
2022/04/01 23:09:50;;;;;;;2.35;1.17;;;;;;;-0.05;75.46;101355.75;4981184;23;20048;-87
2022/04/01 23:12:35;;;;;;;7.95;2.10;;;;;;;0.11;75.61;101375.91;4933618;29;20036;-86
2022/04/01 23:15:55;;;;;;;;;;;;;;;;;;;;;
2022/04/01 23:18:25;;;;;;;3.10;1.50;;;;;;;0.17;75.73;101373.56;4935390;29;20650;-86
2022/04/01 23:20:50;;;;;;;4.50;1.75;;;;;;;0.23;76.12;101389.50;4935673;29;20501;-87
2022/04/01 23:23:15;;;;;;;3.87;1.67;;;;;;;0.21;76.14;101380.97;4935463;29;20119;-86
2022/04/01 23:25:41;;;;;;;3.80;1.70;;;;;;;0.23;76.41;101375.50;4934740;29;20036;-86
2022/04/01 23:28:06;;;;;;;4.83;1.80;;;;;;;0.20;76.07;101371.41;5018471;23;20076;-86
2022/04/01 23:30:53;;;;;;;4.40;1.60;;;;;;;0.17;76.61;101368.31;4896254;29;20024;-87
2022/04/01 23:37:05;;;;;;;3.00;1.70;;;;;;;0.29;76.77;101396.69;5018705;23;20102;-86
2022/04/01 23:43:40;;;;;;;4.68;1.60;;;;;;;0.25;76.63;101390.16;4916934;29;20059;-86
2022/04/01 23:48:41;;;;;;;2.95;1.70;;;;;;;0.14;76.82;101365.03;5125510;23;20076;-86
2022/04/01 23:51:07;;;;;;;3.03;1.73;;;;;;;0.19;76.36;101382.94;4915759;29;20492;-86
2022/04/01 23:53:32;;;;;;;4.82;1.65;;;;;;;0.22;77.63;101385.22;4915834;29;20453;-86
2022/04/01 23:55:58;;;;;;;4.43;1.93;;;;;;;0.20;77.14;101389.03;4905942;29;20488;-86
2022/04/01 23:58:23;;;;;;;5.40;1.90;;;;;;;0.20;77.05;101395.13;4899262;29;20515;-87
